Time;durP1;ratioP1;P1;durP2;ratioP2;P2;SDS_P1;SDS_P2;PMS_P1;PMS_P2;Temp;Humidity;BMP_temperature;BMP_pressure;BME280_temperature;BME280_humidity;BME280_pressure;Samples;Min_cycle;Max_cycle;Signal;HPM_P1;HPM_P2
2022/10/15 00:00:14;;;;;;;1.60;0.82;;;;;;;;;;6144114;23;20032;-74
2022/10/15 00:02:59;;;;;;;2.92;1.17;;;;;;;;;;6144422;23;20009;-73
2022/10/15 00:05:45;;;;;;;0.98;0.75;;;;;;;;;;6144030;23;20010;-75
2022/10/15 00:08:30;;;;;;;0.77;0.77;;;;;;;;;;6143789;23;20016;-73
2022/10/15 00:11:17;;;;;;;4.38;0.98;;;;;;;;;;6124238;23;20017;-77
2022/10/15 00:14:02;;;;;;;4.03;0.80;;;;;;;;;;6141729;23;20001;-71
2022/10/15 00:16:47;;;;;;;0.82;0.82;;;;;;;;;;6124501;23;20009;-70
2022/10/15 00:19:33;;;;;;;5.47;1.00;;;;;;;;;;6145782;23;19998;-71
2022/10/15 00:22:18;;;;;;;2.53;0.68;;;;;;;;;;6146030;23;20429;-70
2022/10/15 00:25:03;;;;;;;0.93;0.70;;;;;;;;;;6124962;23;20005;-71
2022/10/15 00:27:48;;;;;;;1.40;0.88;;;;;;;;;;6151794;23;20285;-71
2022/10/15 00:30:34;;;;;;;2.88;0.60;;;;;;;;;;6145033;23;20016;-66
2022/10/15 00:33:21;;;;;;;4.32;1.73;;;;;;;;;;6145193;23;20108;-72
2022/10/15 00:36:07;;;;;;;5.00;1.50;;;;;;;;;;6144473;23;20572;-70
2022/10/15 00:38:53;;;;;;;1.13;0.70;;;;;;;;;;6143628;23;20298;-68
2022/10/15 00:41:40;;;;;;;1.05;0.75;;;;;;;;;;6144141;23;20005;-67
2022/10/15 00:44:28;;;;;;;3.38;1.13;;;;;;;;;;6144230;23;20006;-68
2022/10/15 00:47:22;;;;;;;2.30;0.70;;;;;;;;;;6145829;23;20472;-72
2022/10/15 00:50:23;;;;;;;3.28;0.95;;;;;;;;;;6144234;22;20443;-71
2022/10/15 00:53:08;;;;;;;1.75;0.70;;;;;;;;;;6123947;23;20440;-70
2022/10/15 00:55:54;;;;;;;2.08;0.80;;;;;;;;;;6143194;23;20048;-70
2022/10/15 00:58:39;;;;;;;2.97;0.77;;;;;;;;;;6146884;23;20008;-70
2022/10/15 01:01:24;;;;;;;0.63;0.60;;;;;;;;;;6148187;23;20005;-70
2022/10/15 01:04:10;;;;;;;0.65;0.60;;;;;;;;;;6145869;23;20005;-72
2022/10/15 01:06:55;;;;;;;0.80;0.70;;;;;;;;;;6145924;23;20017;-77
2022/10/15 01:09:43;;;;;;;0.60;0.60;;;;;;;;;;6145497;23;20333;-75
2022/10/15 01:12:38;;;;;;;2.50;0.65;;;;;;;;;;6125663;23;20014;-75
2022/10/15 01:15:37;;;;;;;1.45;0.68;;;;;;;;;;6145820;23;20370;-75
2022/10/15 01:18:34;;;;;;;0.73;0.70;;;;;;;;;;6146064;23;20017;-77
2022/10/15 01:21:41;;;;;;;4.00;0.70;;;;;;;;;;6147153;23;20307;-74
2022/10/15 01:24:44;;;;;;;3.30;0.77;;;;;;;;;;6147662;22;20078;-74
2022/10/15 01:27:59;;;;;;;3.83;0.90;;;;;;;;;;6147187;23;20014;-68
2022/10/15 01:30:45;;;;;;;1.52;0.55;;;;;;;;;;6195226;23;20068;-68
2022/10/15 01:33:40;;;;;;;1.00;0.60;;;;;;;;;;6149694;23;20088;-70
2022/10/15 01:36:30;;;;;;;1.80;0.60;;;;;;;;;;6146936;23;20012;-72
2022/10/15 01:39:26;;;;;;;0.65;0.65;;;;;;;;;;6145439;22;20104;-69
2022/10/15 01:42:15;;;;;;;2.97;0.70;;;;;;;;;;6147266;23;20002;-76
2022/10/15 01:45:04;;;;;;;0.95;0.57;;;;;;;;;;6145679;23;20020;-70
2022/10/15 01:47:52;;;;;;;1.05;0.50;;;;;;;;;;6145262;23;20051;-70
2022/10/15 01:50:39;;;;;;;0.50;0.50;;;;;;;;;;6146558;22;20016;-70
2022/10/15 01:53:25;;;;;;;2.67;0.80;;;;;;;;;;6146550;22;20114;-70
2022/10/15 01:56:14;;;;;;;2.25;0.60;;;;;;;;;;6146471;23;20068;-71
2022/10/15 01:59:00;;;;;;;0.77;0.52;;;;;;;;;;6146194;23;20002;-71
2022/10/15 02:01:45;;;;;;;3.65;1.23;;;;;;;;;;6146763;22;20178;-70
2022/10/15 02:04:30;;;;;;;0.93;0.70;;;;;;;;;;6153081;22;20014;-70
2022/10/15 02:07:22;;;;;;;2.67;0.90;;;;;;;;;;6125131;23;20014;-70
2022/10/15 02:10:07;;;;;;;0.88;0.60;;;;;;;;;;6147771;23;20012;-69
2022/10/15 02:13:08;;;;;;;7.20;1.88;;;;;;;;;;6145803;23;20013;-75
2022/10/15 02:16:10;;;;;;;3.25;0.65;;;;;;;;;;6146230;23;20002;-72
2022/10/15 02:19:05;;;;;;;4.47;0.63;;;;;;;;;;6145665;23;20088;-72
2022/10/15 02:22:01;;;;;;;0.68;0.60;;;;;;;;;;6147304;23;20018;-75
2022/10/15 02:24:52;;;;;;;0.70;0.70;;;;;;;;;;6145865;23;20001;-74
2022/10/15 02:27:38;;;;;;;0.60;0.60;;;;;;;;;;6146651;23;20013;-74
2022/10/15 02:30:24;;;;;;;1.65;0.70;;;;;;;;;;6123559;23;20031;-76
2022/10/15 02:33:09;;;;;;;0.50;0.50;;;;;;;;;;6144489;23;20017;-76
2022/10/15 02:35:56;;;;;;;2.35;0.52;;;;;;;;;;6148626;23;20028;-78
2022/10/15 02:38:43;;;;;;;3.88;0.77;;;;;;;;;;6147543;23;20057;-74
2022/10/15 02:41:28;;;;;;;1.55;0.90;;;;;;;;;;6143509;23;20429;-74
2022/10/15 02:44:14;;;;;;;3.40;0.65;;;;;;;;;;6144677;23;20001;-73
2022/10/15 02:46:59;;;;;;;2.75;0.55;;;;;;;;;;6143605;23;20045;-74
2022/10/15 02:49:44;;;;;;;0.70;0.70;;;;;;;;;;6145914;23;20005;-74
2022/10/15 02:52:29;;;;;;;1.95;1.00;;;;;;;;;;6144453;23;20005;-73
2022/10/15 02:55:15;;;;;;;1.55;0.65;;;;;;;;;;6143861;23;20039;-74
2022/10/15 02:58:00;;;;;;;2.08;0.60;;;;;;;;;;6144879;23;20002;-75
2022/10/15 03:00:45;;;;;;;4.32;0.70;;;;;;;;;;6144621;23;20002;-76
2022/10/15 03:03:30;;;;;;;0.88;0.57;;;;;;;;;;6231893;22;20041;-77
2022/10/15 03:06:15;;;;;;;2.63;0.75;;;;;;;;;;6145259;23;20010;-75
2022/10/15 03:09:01;;;;;;;0.88;0.50;;;;;;;;;;6148302;23;20006;-76
2022/10/15 03:11:46;;;;;;;0.75;0.60;;;;;;;;;;6147099;23;20020;-75
2022/10/15 03:14:31;;;;;;;2.40;0.50;;;;;;;;;;6146544;23;20061;-73
2022/10/15 03:17:16;;;;;;;1.90;0.65;;;;;;;;;;6145002;23;20401;-69
2022/10/15 03:20:02;;;;;;;4.15;0.60;;;;;;;;;;6146117;23;20350;-69
2022/10/15 03:22:47;;;;;;;1.20;0.50;;;;;;;;;;6144989;23;20005;-69
2022/10/15 03:25:33;;;;;;;4.32;0.63;;;;;;;;;;6144426;23;20009;-69
2022/10/15 03:28:18;;;;;;;2.65;0.55;;;;;;;;;;6144115;23;20040;-69
2022/10/15 03:31:04;;;;;;;2.70;0.60;;;;;;;;;;6144259;23;20519;-68
2022/10/15 03:33:49;;;;;;;5.28;0.73;;;;;;;;;;6146052;23;20487;-76
2022/10/15 03:36:35;;;;;;;2.00;0.68;;;;;;;;;;6144808;23;20021;-75
2022/10/15 03:39:20;;;;;;;1.38;0.65;;;;;;;;;;6144060;23;20180;-73
2022/10/15 03:42:05;;;;;;;2.47;1.15;;;;;;;;;;6148575;23;20042;-75
2022/10/15 03:44:50;;;;;;;3.40;0.60;;;;;;;;;;6145050;23;20009;-74
2022/10/15 03:47:35;;;;;;;0.60;0.60;;;;;;;;;;6141634;23;20460;-75
2022/10/15 03:50:21;;;;;;;5.28;0.60;;;;;;;;;;6143082;23;20001;-72
2022/10/15 03:53:06;;;;;;;1.65;0.80;;;;;;;;;;6146216;23;20013;-71
2022/10/15 03:55:51;;;;;;;0.65;0.50;;;;;;;;;;6144146;23;20040;-72
2022/10/15 03:58:36;;;;;;;1.42;0.70;;;;;;;;;;6123005;23;20052;-71
2022/10/15 04:01:22;;;;;;;3.42;0.60;;;;;;;;;;6142499;23;20329;-72
2022/10/15 04:04:07;;;;;;;4.68;0.65;;;;;;;;;;6144041;23;20013;-71
2022/10/15 04:06:52;;;;;;;3.97;0.80;;;;;;;;;;6145480;23;20047;-74
2022/10/15 04:09:37;;;;;;;3.72;1.25;;;;;;;;;;6145149;23;20438;-76
2022/10/15 04:12:23;;;;;;;0.40;0.40;;;;;;;;;;6144374;23;20429;-74
2022/10/15 04:15:08;;;;;;;1.45;0.52;;;;;;;;;;6150943;23;20059;-75
2022/10/15 04:17:54;;;;;;;3.22;0.57;;;;;;;;;;6143796;23;20057;-73
2022/10/15 04:20:41;;;;;;;2.60;0.57;;;;;;;;;;6144699;23;20312;-74
2022/10/15 04:23:26;;;;;;;5.25;0.77;;;;;;;;;;6143229;23;20483;-75
2022/10/15 04:26:12;;;;;;;2.15;1.08;;;;;;;;;;6121748;23;20071;-75
2022/10/15 04:28:57;;;;;;;7.00;1.15;;;;;;;;;;6143680;23;20077;-77
2022/10/15 04:31:42;;;;;;;3.03;0.60;;;;;;;;;;6146757;23;20052;-75
2022/10/15 04:34:27;;;;;;;4.03;0.75;;;;;;;;;;6143348;23;20333;-76
2022/10/15 04:37:12;;;;;;;2.88;0.55;;;;;;;;;;6145589;23;20013;-76
2022/10/15 04:39:58;;;;;;;5.28;0.85;;;;;;;;;;6146151;23;20060;-75
2022/10/15 04:42:43;;;;;;;1.85;0.60;;;;;;;;;;6146231;23;20689;-76
2022/10/15 04:45:28;;;;;;;3.90;0.80;;;;;;;;;;6149682;23;20001;-71
2022/10/15 04:48:13;;;;;;;3.63;1.13;;;;;;;;;;6149293;23;20005;-74
2022/10/15 04:51:15;;;;;;;9.82;1.25;;;;;;;;;;6145671;23;20020;-73
2022/10/15 04:54:01;;;;;;;3.97;0.68;;;;;;;;;;6146668;23;20024;-73
2022/10/15 04:56:46;;;;;;;5.38;0.65;;;;;;;;;;6145587;23;20659;-74
2022/10/15 04:59:31;;;;;;;2.53;0.80;;;;;;;;;;6142285;23;20005;-76
2022/10/15 05:02:16;;;;;;;2.38;0.82;;;;;;;;;;6142006;23;20013;-75
2022/10/15 05:05:02;;;;;;;2.08;0.77;;;;;;;;;;6145779;23;20441;-71
2022/10/15 05:07:47;;;;;;;4.93;0.70;;;;;;;;;;6146614;23;20066;-78
2022/10/15 05:10:32;;;;;;;3.50;0.82;;;;;;;;;;6145475;23;20005;-80
2022/10/15 05:13:17;;;;;;;6.28;2.95;;;;;;;;;;6146598;23;20009;-81
2022/10/15 05:16:16;;;;;;;3.28;0.88;;;;;;;;;;6146578;23;19993;-77
2022/10/15 05:19:03;;;;;;;3.65;0.73;;;;;;;;;;6153331;23;20002;-79
2022/10/15 05:21:48;;;;;;;3.70;0.80;;;;;;;;;;6146414;23;20010;-70
2022/10/15 05:24:33;;;;;;;5.68;0.80;;;;;;;;;;6146735;23;20329;-74
2022/10/15 05:27:18;;;;;;;7.25;1.05;;;;;;;;;;6145761;23;20542;-71
2022/10/15 05:30:04;;;;;;;4.35;0.88;;;;;;;;;;6146665;23;20009;-68
2022/10/15 05:32:53;;;;;;;7.60;1.08;;;;;;;;;;6147054;23;20005;-70
2022/10/15 05:35:38;;;;;;;4.53;0.93;;;;;;;;;;6145709;23;20124;-71
2022/10/15 05:38:23;;;;;;;8.27;1.42;;;;;;;;;;6146732;23;20076;-69
2022/10/15 05:41:09;;;;;;;1.95;1.05;;;;;;;;;;6145798;23;20013;-76
2022/10/15 05:43:55;;;;;;;5.63;0.80;;;;;;;;;;6146317;23;20091;-70
2022/10/15 05:46:40;;;;;;;5.15;1.00;;;;;;;;;;6147332;23;20460;-70
2022/10/15 05:49:25;;;;;;;2.22;0.95;;;;;;;;;;6148846;23;20057;-70
2022/10/15 05:52:10;;;;;;;6.78;1.20;;;;;;;;;;6150705;23;20010;-71
2022/10/15 05:54:56;;;;;;;5.97;0.95;;;;;;;;;;6147926;23;20016;-70
2022/10/15 05:57:41;;;;;;;4.55;1.00;;;;;;;;;;6145990;23;20005;-72
2022/10/15 06:00:26;;;;;;;5.65;0.88;;;;;;;;;;6126167;23;20009;-70
2022/10/15 06:03:13;;;;;;;12.70;1.20;;;;;;;;;;6146407;23;20055;-70
2022/10/15 06:05:58;;;;;;;10.50;1.20;;;;;;;;;;6145890;23;20543;-70
2022/10/15 06:08:44;;;;;;;8.02;1.20;;;;;;;;;;6125684;23;20006;-71
2022/10/15 06:11:29;;;;;;;3.67;0.90;;;;;;;;;;6145669;23;20006;-70
2022/10/15 06:14:14;;;;;;;4.15;0.88;;;;;;;;;;6145357;23;20013;-69
2022/10/15 06:16:59;;;;;;;4.35;2.00;;;;;;;;;;6146185;23;20084;-72
2022/10/15 06:19:45;;;;;;;10.50;1.50;;;;;;;;;;6147258;23;20001;-78
2022/10/15 06:22:30;;;;;;;6.25;1.10;;;;;;;;;;6153683;23;20096;-74
2022/10/15 06:25:15;;;;;;;6.05;0.90;;;;;;;;;;6146296;23;20001;-74
2022/10/15 06:28:02;;;;;;;2.25;0.85;;;;;;;;;;6146779;23;20079;-73
2022/10/15 06:30:47;;;;;;;2.05;0.90;;;;;;;;;;6143324;23;20049;-72
2022/10/15 06:33:32;;;;;;;6.10;0.88;;;;;;;;;;6143592;23;20005;-73
2022/10/15 06:36:18;;;;;;;10.75;1.17;;;;;;;;;;6145096;23;20013;-74
2022/10/15 06:39:03;;;;;;;7.15;1.20;;;;;;;;;;6144894;23;20008;-75
2022/10/15 06:41:48;;;;;;;2.75;1.33;;;;;;;;;;6145302;23;20021;-75
2022/10/15 06:44:33;;;;;;;6.72;0.98;;;;;;;;;;6147272;23;20054;-74
2022/10/15 06:47:18;;;;;;;2.40;0.80;;;;;;;;;;6144920;23;20086;-75
2022/10/15 06:50:05;;;;;;;4.47;0.93;;;;;;;;;;6146623;23;20066;-74
2022/10/15 06:52:50;;;;;;;7.28;1.00;;;;;;;;;;6144959;23;20360;-76
2022/10/15 06:55:35;;;;;;;3.40;1.02;;;;;;;;;;6128935;23;20021;-71
2022/10/15 06:58:20;;;;;;;9.13;2.97;;;;;;;;;;6145902;23;20002;-73
2022/10/15 07:01:07;;;;;;;3.85;0.75;;;;;;;;;;6147220;23;20005;-70
2022/10/15 07:03:52;;;;;;;4.05;1.00;;;;;;;;;;6145223;23;20016;-73
2022/10/15 07:06:38;;;;;;;4.13;0.80;;;;;;;;;;6126421;23;20006;-69
2022/10/15 07:09:23;;;;;;;2.10;0.95;;;;;;;;;;6143762;23;20310;-70
2022/10/15 07:12:08;;;;;;;1.15;0.80;;;;;;;;;;6144875;23;20325;-67
2022/10/15 07:14:54;;;;;;;6.43;1.25;;;;;;;;;;6145138;23;20425;-66
2022/10/15 07:17:44;;;;;;;3.80;0.98;;;;;;;;;;6144624;23;20006;-63
2022/10/15 07:20:30;;;;;;;3.33;0.90;;;;;;;;;;6144785;23;20006;-62
2022/10/15 07:23:15;;;;;;;4.53;1.08;;;;;;;;;;6145062;23;20009;-64
2022/10/15 07:26:00;;;;;;;7.55;1.00;;;;;;;;;;6147262;23;20081;-62
2022/10/15 07:28:46;;;;;;;5.53;1.30;;;;;;;;;;6149581;23;20027;-62
2022/10/15 07:31:31;;;;;;;3.30;0.90;;;;;;;;;;6146645;23;20013;-61
2022/10/15 07:34:16;;;;;;;5.30;1.17;;;;;;;;;;6145777;23;20017;-67
2022/10/15 07:37:03;;;;;;;4.32;1.00;;;;;;;;;;6144469;23;20063;-65
2022/10/15 07:39:49;;;;;;;6.13;1.00;;;;;;;;;;6147339;23;20054;-66
2022/10/15 07:42:34;;;;;;;6.70;1.10;;;;;;;;;;6146933;23;20012;-64
2022/10/15 07:45:19;;;;;;;5.45;2.55;;;;;;;;;;6146093;23;20079;-66
2022/10/15 07:48:05;;;;;;;1.30;1.13;;;;;;;;;;6146142;23;20010;-64
2022/10/15 07:50:54;;;;;;;4.43;1.20;;;;;;;;;;6144674;23;20020;-63
2022/10/15 07:53:39;;;;;;;4.15;0.93;;;;;;;;;;6145917;23;20008;-68
2022/10/15 07:56:24;;;;;;;5.55;1.00;;;;;;;;;;6142666;23;20366;-69
2022/10/15 07:59:09;;;;;;;1.70;0.90;;;;;;;;;;6150884;23;19997;-69
2022/10/15 08:01:55;;;;;;;3.10;1.08;;;;;;;;;;6143366;23;20009;-69
2022/10/15 08:04:40;;;;;;;3.60;1.20;;;;;;;;;;6144989;23;20360;-69
2022/10/15 08:07:25;;;;;;;4.22;1.23;;;;;;;;;;6145622;23;20020;-69
2022/10/15 08:10:12;;;;;;;1.88;1.27;;;;;;;;;;6148239;23;20146;-81
2022/10/15 08:12:57;;;;;;;2.88;1.00;;;;;;;;;;6127152;23;20502;-71
2022/10/15 08:15:42;;;;;;;2.47;1.30;;;;;;;;;;6149056;23;20033;-72
2022/10/15 08:18:27;;;;;;;3.45;1.15;;;;;;;;;;6147923;23;20435;-71
2022/10/15 08:21:13;;;;;;;1.38;0.90;;;;;;;;;;6147720;23;20002;-72
2022/10/15 08:23:59;;;;;;;5.32;1.30;;;;;;;;;;6147250;23;20009;-71
2022/10/15 08:26:45;;;;;;;3.55;1.30;;;;;;;;;;6147882;23;20061;-69
2022/10/15 08:29:30;;;;;;;2.75;1.58;;;;;;;;;;6127646;23;20055;-71
2022/10/15 08:32:15;;;;;;;2.28;1.00;;;;;;;;;;6153414;23;20032;-71
2022/10/15 08:35:00;;;;;;;1.73;1.08;;;;;;;;;;6147898;23;20012;-70
2022/10/15 08:37:46;;;;;;;5.57;1.20;;;;;;;;;;6147668;23;20005;-70
2022/10/15 08:40:31;;;;;;;2.28;1.10;;;;;;;;;;6147708;23;20037;-70
2022/10/15 08:43:19;;;;;;;3.97;1.15;;;;;;;;;;6147429;23;20024;-69
2022/10/15 08:46:09;;;;;;;2.88;1.40;;;;;;;;;;6147783;23;20029;-68
2022/10/15 08:48:56;;;;;;;5.70;2.13;;;;;;;;;;6147017;23;20013;-69
2022/10/15 08:51:54;;;;;;;3.65;0.93;;;;;;;;;;6147673;23;20048;-72
2022/10/15 08:54:39;;;;;;;3.78;1.23;;;;;;;;;;6147277;23;20059;-70
2022/10/15 08:57:43;;;;;;;5.63;1.40;;;;;;;;;;6147810;23;20009;-70
2022/10/15 09:00:29;;;;;;;7.90;1.30;;;;;;;;;;6147300;23;20059;-70
2022/10/15 09:03:26;;;;;;;3.85;1.23;;;;;;;;;;6153993;23;19994;-77
2022/10/15 09:06:14;;;;;;;2.15;1.17;;;;;;;;;;6148159;23;20012;-82
2022/10/15 09:09:05;;;;;;;2.70;1.30;;;;;;;;;;6147710;23;20017;-80
2022/10/15 09:12:10;;;;;;;8.20;1.95;;;;;;;;;;6147661;23;20076;-79
2022/10/15 09:14:57;;;;;;;7.15;1.90;;;;;;;;;;6147150;23;20006;-80
2022/10/15 09:17:44;;;;;;;3.22;1.30;;;;;;;;;;6148106;23;20016;-80
2022/10/15 09:20:31;;;;;;;5.38;1.40;;;;;;;;;;6147541;22;20768;-80
2022/10/15 09:23:18;;;;;;;3.53;0.98;;;;;;;;;;6146413;23;20005;-70
2022/10/15 09:26:19;;;;;;;1.25;0.90;;;;;;;;;;6146974;23;20417;-68
2022/10/15 09:29:17;;;;;;;7.72;0.95;;;;;;;;;;6146800;23;20021;-69
2022/10/15 09:32:06;;;;;;;1.42;1.02;;;;;;;;;;6145242;23;20433;-69
2022/10/15 09:35:11;;;;;;;1.70;0.98;;;;;;;;;;6152388;23;20001;-69
2022/10/15 09:38:02;;;;;;;1.85;1.00;;;;;;;;;;6147583;23;20029;-69
2022/10/15 09:41:04;;;;;;;2.78;1.13;;;;;;;;;;6146914;23;20044;-72
2022/10/15 09:43:51;;;;;;;4.10;1.38;;;;;;;;;;6146905;23;20002;-67
2022/10/15 09:46:42;;;;;;;2.67;0.95;;;;;;;;;;6146799;23;20018;-68
2022/10/15 09:49:27;;;;;;;4.60;1.50;;;;;;;;;;6146766;23;20010;-67
2022/10/15 09:52:15;;;;;;;0.80;0.70;;;;;;;;;;6146596;23;20014;-68
2022/10/15 09:55:06;;;;;;;1.10;1.00;;;;;;;;;;6146750;23;20009;-68
2022/10/15 09:57:53;;;;;;;1.00;0.68;;;;;;;;;;6146689;23;20002;-69
2022/10/15 10:00:55;;;;;;;3.83;0.75;;;;;;;;;;6146569;23;20072;-69
2022/10/15 10:03:41;;;;;;;1.58;0.82;;;;;;;;;;6146317;23;20364;-70
2022/10/15 10:06:26;;;;;;;0.50;0.50;;;;;;;;;;6148590;23;20005;-69
2022/10/15 10:09:16;;;;;;;1.73;1.13;;;;;;;;;;6149674;23;20005;-70
2022/10/15 10:12:16;;;;;;;2.15;0.90;;;;;;;;;;6146436;23;20002;-70
2022/10/15 10:15:08;;;;;;;1.33;0.80;;;;;;;;;;6146504;23;20468;-69
2022/10/15 10:17:54;;;;;;;0.95;0.73;;;;;;;;;;6146262;23;20010;-71
2022/10/15 10:20:51;;;;;;;1.20;0.70;;;;;;;;;;6147078;22;20012;-71
2022/10/15 10:23:38;;;;;;;0.47;0.47;;;;;;;;;;6146560;23;20295;-71
2022/10/15 10:26:23;;;;;;;4.97;1.00;;;;;;;;;;6147151;23;20002;-71
2022/10/15 10:29:14;;;;;;;2.00;0.80;;;;;;;;;;6126101;23;20008;-72
2022/10/15 10:32:07;;;;;;;3.05;1.08;;;;;;;;;;6146756;23;20009;-72
2022/10/15 10:34:53;;;;;;;2.05;0.93;;;;;;;;;;6146435;23;20469;-73
2022/10/15 10:37:42;;;;;;;3.38;1.00;;;;;;;;;;6148005;23;20067;-69
2022/10/15 10:40:30;;;;;;;2.33;0.77;;;;;;;;;;6131868;23;20059;-70
2022/10/15 10:43:18;;;;;;;2.22;0.90;;;;;;;;;;6125126;23;20033;-71
2022/10/15 10:46:03;;;;;;;2.55;0.70;;;;;;;;;;6146622;22;20080;-70
2022/10/15 10:48:50;;;;;;;1.55;0.98;;;;;;;;;;6125812;23;20028;-70
2022/10/15 10:51:47;;;;;;;3.13;1.02;;;;;;;;;;6146513;23;20059;-69
2022/10/15 10:54:32;;;;;;;3.00;1.15;;;;;;;;;;6147144;23;20421;-71
2022/10/15 10:57:22;;;;;;;3.95;0.80;;;;;;;;;;6148714;23;20013;-80
2022/10/15 11:00:07;;;;;;;;;;;;;;;;;;6128513;23;20017;-79
2022/10/15 11:02:52;;;;;;;3.38;1.00;;;;;;;;;;6168719;23;19946;-80
2022/10/15 11:05:39;;;;;;;2.28;1.15;;;;;;;;;;6146530;23;20012;-78
2022/10/15 11:09:03;;;;;;;6.57;1.15;;;;;;;;;;6146003;23;20084;-79
2022/10/15 11:11:57;;;;;;;5.03;0.88;;;;;;;;;;6196226;23;20539;-71
2022/10/15 11:14:42;;;;;;;3.42;1.00;;;;;;;;;;6208605;23;20096;-69
2022/10/15 11:17:39;;;;;;;4.32;0.90;;;;;;;;;;6148372;23;20041;-70
2022/10/15 11:20:30;;;;;;;7.63;1.02;;;;;;;;;;6144270;23;20043;-69
2022/10/15 11:23:23;;;;;;;2.88;1.17;;;;;;;;;;6145912;23;20013;-69
2022/10/15 11:26:27;;;;;;;1.20;0.70;;;;;;;;;;6145779;23;19998;-70
2022/10/15 11:29:15;;;;;;;1.75;0.90;;;;;;;;;;6146092;23;20017;-70
2022/10/15 11:32:12;;;;;;;4.40;1.20;;;;;;;;;;6146088;23;20002;-72
2022/10/15 11:35:04;;;;;;;3.72;0.98;;;;;;;;;;6146017;23;20005;-71
2022/10/15 11:37:49;;;;;;;6.15;1.35;;;;;;;;;;6146139;23;20063;-73
2022/10/15 11:40:43;;;;;;;4.88;1.00;;;;;;;;;;6145835;23;20012;-72
2022/10/15 11:43:52;;;;;;;4.82;0.95;;;;;;;;;;6153292;23;20013;-70
2022/10/15 11:46:52;;;;;;;1.60;0.93;;;;;;;;;;6145602;23;20059;-70
2022/10/15 11:49:53;;;;;;;1.90;1.00;;;;;;;;;;6145727;23;20009;-65
2022/10/15 11:52:57;;;;;;;3.75;1.00;;;;;;;;;;6145790;23;20009;-68
2022/10/15 11:55:52;;;;;;;2.95;0.93;;;;;;;;;;6145856;23;20098;-70
2022/10/15 11:58:40;;;;;;;4.38;1.00;;;;;;;;;;6145950;23;20014;-67
2022/10/15 12:01:32;;;;;;;3.25;1.15;;;;;;;;;;6125466;23;20324;-69
2022/10/15 12:04:28;;;;;;;0.73;0.70;;;;;;;;;;6145755;22;19998;-68
2022/10/15 12:07:19;;;;;;;1.83;1.02;;;;;;;;;;6145975;23;20016;-69
2022/10/15 12:10:14;;;;;;;0.85;0.77;;;;;;;;;;6146064;23;20009;-72
2022/10/15 12:13:04;;;;;;;1.85;0.80;;;;;;;;;;6145613;23;20006;-72
2022/10/15 12:15:53;;;;;;;2.17;1.00;;;;;;;;;;6153266;23;20010;-71
2022/10/15 12:18:44;;;;;;;1.50;0.68;;;;;;;;;;6145838;23;20005;-70
2022/10/15 12:21:37;;;;;;;1.98;0.73;;;;;;;;;;6145794;23;20496;-72
2022/10/15 12:24:43;;;;;;;2.58;0.80;;;;;;;;;;6146298;23;20025;-71
2022/10/15 12:27:33;;;;;;;3.47;1.42;;;;;;;;;;6145820;23;20010;-70
2022/10/15 12:30:19;;;;;;;1.85;0.70;;;;;;;;;;6145785;23;20009;-67
2022/10/15 12:33:25;;;;;;;3.58;1.45;;;;;;;;;;6145724;23;20121;-68
2022/10/15 12:36:27;;;;;;;2.75;0.80;;;;;;;;;;6145806;22;20008;-69
2022/10/15 12:39:22;;;;;;;1.20;0.60;;;;;;;;;;6145692;23;20009;-69
2022/10/15 12:42:22;;;;;;;1.40;0.80;;;;;;;;;;6145972;23;20006;-70
2022/10/15 12:45:23;;;;;;;1.20;0.73;;;;;;;;;;6125233;23;20073;-68
2022/10/15 12:48:17;;;;;;;3.13;0.80;;;;;;;;;;6239466;22;20429;-71
2022/10/15 12:51:33;;;;;;;3.17;0.85;;;;;;;;;;6145620;23;20012;-72
2022/10/15 12:54:34;;;;;;;2.70;0.90;;;;;;;;;;6149015;23;20015;-70
2022/10/15 12:57:33;;;;;;;1.83;0.88;;;;;;;;;;6146456;23;19998;-71
2022/10/15 13:00:24;;;;;;;2.60;1.35;;;;;;;;;;6147476;23;20298;-70
2022/10/15 13:03:15;;;;;;;5.47;1.08;;;;;;;;;;6147144;23;20383;-70
2022/10/15 13:06:14;;;;;;;4.13;0.98;;;;;;;;;;6147843;23;20017;-82
2022/10/15 13:09:02;;;;;;;0.88;0.80;;;;;;;;;;6148888;22;20013;-79
2022/10/15 13:11:49;;;;;;;2.25;0.90;;;;;;;;;;6150142;23;20045;-80
2022/10/15 13:14:47;;;;;;;1.75;0.80;;;;;;;;;;6158577;22;20020;-80
2022/10/15 13:17:32;;;;;;;1.65;0.85;;;;;;;;;;6160361;23;20002;-79
2022/10/15 13:20:29;;;;;;;3.20;1.27;;;;;;;;;;6156466;23;20031;-79
2022/10/15 13:23:16;;;;;;;1.55;0.95;;;;;;;;;;6147581;23;20520;-78
2022/10/15 13:26:22;;;;;;;1.60;0.98;;;;;;;;;;6147779;23;20085;-79
2022/10/15 13:29:13;;;;;;;4.18;1.17;;;;;;;;;;6147742;23;20002;-78
2022/10/15 13:31:59;;;;;;;1.48;0.88;;;;;;;;;;6127547;23;20006;-79
2022/10/15 13:34:44;;;;;;;3.90;1.00;;;;;;;;;;6147462;23;20168;-78
2022/10/15 13:37:31;;;;;;;2.85;0.82;;;;;;;;;;6148103;23;19998;-80
2022/10/15 13:40:27;;;;;;;1.67;0.90;;;;;;;;;;6147379;23;20016;-78
2022/10/15 13:43:15;;;;;;;3.45;1.63;;;;;;;;;;6147677;23;20009;-71
2022/10/15 13:46:00;;;;;;;2.80;1.02;;;;;;;;;;6147308;23;20435;-72
2022/10/15 13:48:45;;;;;;;4.78;1.17;;;;;;;;;;6147799;23;19998;-71
2022/10/15 13:51:33;;;;;;;2.40;1.13;;;;;;;;;;6154680;23;20023;-71
2022/10/15 13:54:20;;;;;;;3.05;1.10;;;;;;;;;;6147161;23;20009;-71
2022/10/15 13:57:12;;;;;;;3.47;1.30;;;;;;;;;;6147100;23;20006;-71
2022/10/15 13:59:58;;;;;;;3.47;1.35;;;;;;;;;;6147575;23;20317;-67
2022/10/15 14:02:43;;;;;;;6.38;1.40;;;;;;;;;;6147095;23;20051;-66
2022/10/15 14:05:28;;;;;;;2.25;1.05;;;;;;;;;;6147541;23;20011;-67
2022/10/15 14:08:14;;;;;;;7.13;1.58;;;;;;;;;;6148190;23;20421;-66
2022/10/15 14:11:00;;;;;;;5.35;1.70;;;;;;;;;;6149588;23;20032;-67
2022/10/15 14:13:46;;;;;;;3.25;1.55;;;;;;;;;;6146970;23;20480;-68
2022/10/15 14:16:36;;;;;;;10.45;1.55;;;;;;;;;;6149009;23;20023;-79
2022/10/15 14:19:25;;;;;;;5.10;1.58;;;;;;;;;;6147291;23;20001;-68
2022/10/15 14:22:15;;;;;;;3.45;1.55;;;;;;;;;;6148517;23;20002;-67
2022/10/15 14:25:07;;;;;;;6.85;1.60;;;;;;;;;;6150043;23;20029;-68
2022/10/15 14:27:52;;;;;;;5.45;1.23;;;;;;;;;;6146728;23;20016;-67
2022/10/15 14:30:38;;;;;;;3.20;1.27;;;;;;;;;;6146920;23;20033;-66
2022/10/15 14:33:31;;;;;;;4.68;1.15;;;;;;;;;;6146116;23;20010;-67
2022/10/15 14:36:16;;;;;;;3.13;1.40;;;;;;;;;;6146536;23;20010;-71
2022/10/15 14:39:20;;;;;;;2.58;0.95;;;;;;;;;;6146913;23;20062;-79
2022/10/15 14:42:24;;;;;;;2.10;1.08;;;;;;;;;;6146492;23;20409;-79
2022/10/15 14:45:19;;;;;;;3.00;1.30;;;;;;;;;;6147144;23;20002;-79
2022/10/15 14:48:09;;;;;;;3.53;1.27;;;;;;;;;;6146790;23;20063;-80
2022/10/15 14:50:58;;;;;;;3.78;1.10;;;;;;;;;;6146978;23;20035;-79
2022/10/15 14:53:45;;;;;;;4.47;1.27;;;;;;;;;;6147092;23;20021;-69
2022/10/15 14:56:32;;;;;;;8.25;1.40;;;;;;;;;;6151628;23;20066;-68
2022/10/15 14:59:18;;;;;;;5.88;1.45;;;;;;;;;;6146532;23;20018;-68
2022/10/15 15:02:04;;;;;;;7.93;1.33;;;;;;;;;;6146931;23;19998;-69
2022/10/15 15:04:51;;;;;;;5.72;1.05;;;;;;;;;;6146088;23;20499;-67
2022/10/15 15:07:37;;;;;;;3.70;1.13;;;;;;;;;;6146538;23;20059;-68
2022/10/15 15:10:23;;;;;;;8.32;1.20;;;;;;;;;;6146652;23;20436;-70
2022/10/15 15:13:10;;;;;;;4.05;1.45;;;;;;;;;;6146310;23;20132;-71
2022/10/15 15:15:55;;;;;;;6.18;1.33;;;;;;;;;;6146716;23;20012;-81
2022/10/15 15:18:42;;;;;;;8.23;1.52;;;;;;;;;;6146288;23;20241;-79
2022/10/15 15:21:27;;;;;;;3.95;1.77;;;;;;;;;;6146395;22;20328;-78
2022/10/15 15:24:13;;;;;;;5.70;1.67;;;;;;;;;;6146542;23;20008;-78
2022/10/15 15:26:58;;;;;;;6.82;1.73;;;;;;;;;;6151746;23;20061;-80
2022/10/15 15:29:43;;;;;;;2.53;1.33;;;;;;;;;;6147390;23;20368;-71
2022/10/15 15:32:28;;;;;;;16.67;2.58;;;;;;;;;;6146574;23;20064;-81
2022/10/15 15:35:17;;;;;;;3.85;0.93;;;;;;;;;;6146041;23;20096;-80
2022/10/15 15:38:05;;;;;;;2.60;1.20;;;;;;;;;;6147072;23;20002;-80
2022/10/15 15:40:50;;;;;;;2.13;1.02;;;;;;;;;;6146589;23;20386;-80
2022/10/15 15:43:36;;;;;;;5.75;1.70;;;;;;;;;;6126337;23;20016;-81
2022/10/15 15:46:21;;;;;;;8.77;1.40;;;;;;;;;;6146469;23;20005;-81
2022/10/15 15:49:06;;;;;;;3.65;1.13;;;;;;;;;;6146234;23;20032;-70
2022/10/15 15:51:51;;;;;;;4.78;1.17;;;;;;;;;;6146230;23;20006;-70
2022/10/15 15:54:37;;;;;;;3.67;1.17;;;;;;;;;;6146458;23;20025;-70
2022/10/15 15:57:22;;;;;;;8.95;1.38;;;;;;;;;;6145701;23;20001;-71
2022/10/15 16:00:08;;;;;;;4.38;1.65;;;;;;;;;;6154119;23;20017;-70
2022/10/15 16:02:53;;;;;;;9.35;1.65;;;;;;;;;;6146468;23;20005;-70
2022/10/15 16:05:39;;;;;;;3.05;1.10;;;;;;;;;;6146448;23;20009;-69
2022/10/15 16:08:24;;;;;;;1.92;1.00;;;;;;;;;;6146278;23;20100;-71
2022/10/15 16:11:10;;;;;;;5.18;1.33;;;;;;;;;;6146118;23;20010;-72
2022/10/15 16:13:55;;;;;;;1.27;1.00;;;;;;;;;;6146378;23;20051;-70
2022/10/15 16:16:40;;;;;;;6.25;1.20;;;;;;;;;;6145807;23;20018;-70
2022/10/15 16:19:25;;;;;;;4.22;1.42;;;;;;;;;;6146173;23;20005;-70
2022/10/15 16:22:12;;;;;;;2.85;1.20;;;;;;;;;;6146155;23;20012;-72
2022/10/15 16:24:57;;;;;;;4.00;1.15;;;;;;;;;;6146380;23;20009;-72
2022/10/15 16:27:44;;;;;;;2.22;1.05;;;;;;;;;;6146149;23;20002;-71
2022/10/15 16:30:29;;;;;;;1.67;0.80;;;;;;;;;;6149060;23;20009;-71
2022/10/15 16:33:14;;;;;;;5.95;1.75;;;;;;;;;;6129150;23;20059;-72
2022/10/15 16:36:00;;;;;;;2.28;1.42;;;;;;;;;;6147905;23;20088;-71
2022/10/15 16:38:45;;;;;;;2.30;1.25;;;;;;;;;;6148096;23;20035;-73
2022/10/15 16:41:31;;;;;;;3.05;1.38;;;;;;;;;;6147822;22;20084;-71
2022/10/15 16:44:16;;;;;;;3.80;1.67;;;;;;;;;;6148056;22;20041;-72
2022/10/15 16:47:01;;;;;;;4.43;1.17;;;;;;;;;;6147695;23;20050;-70
2022/10/15 16:49:47;;;;;;;5.70;1.25;;;;;;;;;;6147693;23;20029;-70